AirNav   Free Bose QuietComfort 20
 
 1292 users online  

5MI9 Mc Phail Corporation Heliport
Rochester, Michigan, USA

GOING TO ROCHESTER?


FAA INFORMATION EFFECTIVE 05 DECEMBER 2019

Location

FAA Identifier: 5MI9
Lat/Long: 42-39-37.1170N 083-09-19.7570W
42-39.618617N 083-09.329283W
42.6603103,-83.1554881
(estimated)
Elevation: 770 ft. / 235 m (estimated)
Variation: 06W (1985)
From city: 1 mile SE of ROCHESTER, MI
Time zone: UTC -5 (UTC -4 during Daylight Saving Time)
Zip code: 48309

Heliport Operations

Heliport use: Private use. Permission required prior to landing
Activation date: 08/1981
Control tower: no
ARTCC: CLEVELAND CENTER
FSS: LANSING FLIGHT SERVICE STATION
Attendance: UNATNDD
Wind indicator: yes
Segmented circle: no

Heliport Communications

WX AWOS-3 at VLL (7 nm S): 119.475 (248-288-4649)
WX ASOS at PTK (12 nm W): 125.025 (248-886-8551)
WX ASOS at DET (16 nm SE): PHONE 313-371-9696

Nearby radio navigation aids

VOR radial/distance  VOR name  Freq  Var
SVMr055/24.6SALEM VORTAC114.3003W
DXOr025/28.4DETROIT VOR/DME113.4006W
YQGr336/28.6WINDSOR VOR/DME113.8006W
FNTr131/31.9FLINT VORTAC116.9006W
CRLr023/39.1CARLETON VOR/DME115.7003W

 
NDB name  Hdg/Dist  Freq  Var  ID
GROSSE ILE007/33.641907WRYS .-. -.-- ...

Heliport Services

Runway Information

Helipad H1

Dimensions: 40 x 40 ft. / 12 x 12 m
CIRCULAR LANDING PAD.
Surface: asphalt
Latitude: 42-39.618617N
Longitude: 083-09.329283W
Elevation: 770.0 ft.
Traffic pattern: leftleft

Heliport Ownership and Management from official FAA records

Ownership: Privately-owned
Owner: MC PHAIL CORPORATION
ATTN: FRANK SCERBO, 1400 LIVERNOIS AVENUE
ROCHESTER, MI 48307
Phone 561-310-5494
Manager: WALTER S. MC PHAIL
PONTIAC TRAIL
ORCHARD LAKE, MI 48323
Phone 561-310-5494

Heliport Operational Statistics

Aircraft based on the field: 1
Helicopters: 1
    

Additional Remarks

FOR CD CTC DETROIT APCH AT 800-499-8181.

Instrument Procedures

There are no published instrument procedures at 5MI9.

Some nearby airports with instrument procedures:

KVLL - Oakland/Troy Airport (7 nm S)
D98 - Romeo State Airport (11 nm NE)
KPTK - Oakland County International Airport (12 nm W)
57D - Ray Community Airport (13 nm E)
KMTC - Selfridge Air National Guard Base (14 nm E)
KDET - Coleman A Young Municipal Airport (16 nm SE)
 
Loc | Ops | Rwys | IFR | FBO | Links
Com | Nav | Svcs | Stats | Notes
Area around 5MI9 (Mc Phail Corporation Heliport)
 
Road maps at: MapQuest Bing Google
 
Aerial photo
No photo
 
Sectional chart

 
Airport distance calculator
Flying to Mc Phail Corporation Heliport? Find the distance to fly.

From to 5MI9

Sunrise and sunset
Times for 11-Dec-2019
 Local
(UTC-5)
 Zulu
(UTC)
Morning civil twilight07:2212:22
Sunrise07:5412:54
Sunset16:5821:58
Evening civil twilight17:3022:30

Current date and time
Zulu (UTC)  11-Dec-2019 20:55:40
Local (UTC-5)  11-Dec-2019 15:55:40
 
METAR
KVLL 
7nm S 
112036Z AUTO 27012G18KT 10SM CLR M05/M13 A3040 RMK AO2 T10471132
KPTK 
12nm W 
111953Z 27017G31KT 9SM SCT038 M06/M15 A3033 RMK AO2 PK WND 27033/1917 SNE48 SLP287 P0000 T10561150
KMTC 
15nm E 
111955Z 25016G24KT 10SM SCT042 M05/M14 A3034 RMK AO2A PK WND 25028/11 SLP289 T10511137
KDET 
17nm S 
111953Z 29011G23KT 10SM SCT041 M04/M13 A3038 RMK AO2 PK WND 29026/1907 SLP296 T10441133
TAF
KPTK 
12nm W 
111736Z 1118/1218 28015G29KT 6SM -SHSN BKN025 FM112000 25013G21KT P6SM SCT035 FM120000 26010KT P6SM SKC FM120700 18007KT P6SM OVC100 FM121400 18010KT P6SM OVC040
KMTC 
15nm E 
111700Z 1117/1223 25015G25KT 9999 BKN050 620501 QNH3020INS BECMG 1122/1123 29009KT 9999 SKC QNH3034INS BECMG 1208/1209 29009KT 9999 SCT080 QNH3034INS BECMG 1216/1217 29012G18KT 9999 SCT080 QNH3034INS TXM01/1217Z TNM07/1205Z
KDET 
17nm S 
111736Z 1118/1218 26015G27KT 6SM -SHSN BKN035 TEMPO 1118/1119 4SM -SN OVC025 FM112000 26013G21KT P6SM SCT035 FM120000 26010KT P6SM SKC FM120700 18007KT P6SM OVC100 FM121400 17010KT P6SM OVC040
NOTAMs
Click for the latest NOTAMs
NOTAMs are issued by the DoD/FAA and will open in a separate window not controlled by AirNav.

 

 
 

Would you like to see your business listed on this page?

 If your business provides an interesting product or service to pilots, flight crews, aircraft, or users of the Mc Phail Corporation Heliport, you should consider listing it here.  To start the listing process, click on the button below
 
Add a business
 

Other Pages about Mc Phail Corporation Heliport

Update a link
 
Copyright © AirNav, LLC. All rights reserved. Privacy Policy  Contact